sensor_id;sensor_type;location;lat;lon;timestamp;P1;durP1;ratioP1;P2;durP2;ratioP2
25169;SDS011;13129;48.012;10.352;2023-05-29T03:30:32;9.80;;;6.80;;
25169;SDS011;13129;48.012;10.352;2023-05-29T03:32:57;10.65;;;7.55;;
25169;SDS011;13129;48.012;10.352;2023-05-29T03:35:29;11.30;;;7.13;;
25169;SDS011;13129;48.012;10.352;2023-05-29T03:37:55;11.55;;;7.80;;
25169;SDS011;13129;48.012;10.352;2023-05-29T03:40:21;10.52;;;7.35;;
25169;SDS011;13129;48.012;10.352;2023-05-29T03:42:47;9.55;;;6.88;;
25169;SDS011;13129;48.012;10.352;2023-05-29T03:45:12;10.85;;;7.38;;
25169;SDS011;13129;48.012;10.352;2023-05-29T03:47:38;8.88;;;7.75;;
25169;SDS011;13129;48.012;10.352;2023-05-29T03:50:04;9.07;;;7.20;;
25169;SDS011;13129;48.012;10.352;2023-05-29T03:52:30;9.68;;;6.97;;
25169;SDS011;13129;48.012;10.352;2023-05-29T03:54:55;10.88;;;7.63;;
25169;SDS011;13129;48.012;10.352;2023-05-29T03:57:21;8.15;;;6.85;;
25169;SDS011;13129;48.012;10.352;2023-05-29T03:59:46;12.02;;;7.68;;
25169;SDS011;13129;48.012;10.352;2023-05-29T04:02:12;11.60;;;7.68;;
25169;SDS011;13129;48.012;10.352;2023-05-29T04:04:38;11.38;;;7.82;;
25169;SDS011;13129;48.012;10.352;2023-05-29T04:07:05;10.38;;;7.53;;
25169;SDS011;13129;48.012;10.352;2023-05-29T04:09:32;8.25;;;6.90;;
25169;SDS011;13129;48.012;10.352;2023-05-29T04:11:58;9.75;;;7.35;;
25169;SDS011;13129;48.012;10.352;2023-05-29T04:14:27;12.63;;;8.68;;
25169;SDS011;13129;48.012;10.352;2023-05-29T04:16:53;13.38;;;7.68;;
25169;SDS011;13129;48.012;10.352;2023-05-29T04:19:18;13.57;;;8.48;;
25169;SDS011;13129;48.012;10.352;2023-05-29T04:21:44;11.98;;;8.40;;
25169;SDS011;13129;48.012;10.352;2023-05-29T04:24:12;11.85;;;8.13;;
25169;SDS011;13129;48.012;10.352;2023-05-29T04:26:38;12.95;;;8.15;;
25169;SDS011;13129;48.012;10.352;2023-05-29T04:29:06;9.82;;;8.00;;
25169;SDS011;13129;48.012;10.352;2023-05-29T04:31:32;13.15;;;8.43;;
25169;SDS011;13129;48.012;10.352;2023-05-29T04:33:58;11.52;;;7.95;;
25169;SDS011;13129;48.012;10.352;2023-05-29T04:36:25;11.63;;;8.75;;
25169;SDS011;13129;48.012;10.352;2023-05-29T04:38:53;10.20;;;7.50;;
25169;SDS011;13129;48.012;10.352;2023-05-29T04:41:19;13.07;;;8.52;;
25169;SDS011;13129;48.012;10.352;2023-05-29T04:43:48;9.88;;;7.88;;
25169;SDS011;13129;48.012;10.352;2023-05-29T04:46:17;9.60;;;7.53;;
25169;SDS011;13129;48.012;10.352;2023-05-29T04:48:42;10.82;;;7.68;;
25169;SDS011;13129;48.012;10.352;2023-05-29T04:51:09;11.95;;;8.35;;
25169;SDS011;13129;48.012;10.352;2023-05-29T04:53:37;14.07;;;8.40;;
25169;SDS011;13129;48.012;10.352;2023-05-29T04:56:05;11.93;;;8.50;;
25169;SDS011;13129;48.012;10.352;2023-05-29T04:58:30;10.02;;;7.95;;
25169;SDS011;13129;48.012;10.352;2023-05-29T05:00:56;12.10;;;8.52;;
25169;SDS011;13129;48.012;10.352;2023-05-29T05:03:23;13.95;;;8.65;;
25169;SDS011;13129;48.012;10.352;2023-05-29T05:05:50;12.50;;;8.40;;
25169;SDS011;13129;48.012;10.352;2023-05-29T05:08:16;14.43;;;9.00;;
25169;SDS011;13129;48.012;10.352;2023-05-29T05:10:42;11.95;;;8.25;;
25169;SDS011;13129;48.012;10.352;2023-05-29T05:13:08;12.25;;;8.73;;
25169;SDS011;13129;48.012;10.352;2023-05-29T05:15:36;13.40;;;9.35;;
25169;SDS011;13129;48.012;10.352;2023-05-29T05:18:01;13.65;;;8.88;;
25169;SDS011;13129;48.012;10.352;2023-05-29T05:20:27;12.07;;;8.60;;
25169;SDS011;13129;48.012;10.352;2023-05-29T05:22:53;14.25;;;8.43;;
25169;SDS011;13129;48.012;10.352;2023-05-29T05:25:18;13.13;;;9.13;;
25169;SDS011;13129;48.012;10.352;2023-05-29T05:27:44;12.15;;;8.55;;
25169;SDS011;13129;48.012;10.352;2023-05-29T05:30:10;13.20;;;8.10;;
25169;SDS011;13129;48.012;10.352;2023-05-29T05:32:37;12.57;;;7.88;;
25169;SDS011;13129;48.012;10.352;2023-05-29T05:35:02;11.90;;;8.15;;
25169;SDS011;13129;48.012;10.352;2023-05-29T05:37:28;13.38;;;8.65;;
25169;SDS011;13129;48.012;10.352;2023-05-29T05:39:54;12.95;;;8.15;;
25169;SDS011;13129;48.012;10.352;2023-05-29T05:42:22;9.82;;;7.85;;
25169;SDS011;13129;48.012;10.352;2023-05-29T05:44:48;11.57;;;8.07;;
25169;SDS011;13129;48.012;10.352;2023-05-29T05:47:13;12.48;;;8.85;;
25169;SDS011;13129;48.012;10.352;2023-05-29T05:49:39;9.38;;;7.65;;
25169;SDS011;13129;48.012;10.352;2023-05-29T05:52:05;12.40;;;9.15;;
25169;SDS011;13129;48.012;10.352;2023-05-29T05:54:31;10.77;;;8.20;;
25169;SDS011;13129;48.012;10.352;2023-05-29T05:56:56;10.07;;;8.15;;
25169;SDS011;13129;48.012;10.352;2023-05-29T05:59:22;11.65;;;8.10;;
25169;SDS011;13129;48.012;10.352;2023-05-29T06:01:47;10.93;;;8.50;;
25169;SDS011;13129;48.012;10.352;2023-05-29T06:04:13;12.02;;;9.48;;
25169;SDS011;13129;48.012;10.352;2023-05-29T06:06:39;9.75;;;8.75;;
25169;SDS011;13129;48.012;10.352;2023-05-29T06:09:06;10.63;;;8.70;;
25169;SDS011;13129;48.012;10.352;2023-05-29T06:11:31;10.43;;;8.88;;
25169;SDS011;13129;48.012;10.352;2023-05-29T06:13:57;9.68;;;8.68;;
25169;SDS011;13129;48.012;10.352;2023-05-29T06:16:23;12.80;;;9.65;;
25169;SDS011;13129;48.012;10.352;2023-05-29T06:18:49;12.57;;;8.82;;
25169;SDS011;13129;48.012;10.352;2023-05-29T06:21:14;9.65;;;8.50;;
25169;SDS011;13129;48.012;10.352;2023-05-29T06:23:40;11.48;;;9.77;;
25169;SDS011;13129;48.012;10.352;2023-05-29T06:26:06;9.85;;;8.30;;
25169;SDS011;13129;48.012;10.352;2023-05-29T06:28:32;9.75;;;8.05;;
25169;SDS011;13129;48.012;10.352;2023-05-29T06:30:58;10.18;;;9.00;;
25169;SDS011;13129;48.012;10.352;2023-05-29T06:33:23;11.02;;;9.23;;
25169;SDS011;13129;48.012;10.352;2023-05-29T06:35:49;10.70;;;9.48;;
25169;SDS011;13129;48.012;10.352;2023-05-29T06:38:15;11.98;;;9.60;;
25169;SDS011;13129;48.012;10.352;2023-05-29T06:40:40;10.82;;;9.32;;
25169;SDS011;13129;48.012;10.352;2023-05-29T06:43:06;13.23;;;9.63;;
25169;SDS011;13129;48.012;10.352;2023-05-29T06:45:32;11.73;;;9.30;;
25169;SDS011;13129;48.012;10.352;2023-05-29T06:47:57;11.70;;;9.90;;
25169;SDS011;13129;48.012;10.352;2023-05-29T06:50:23;14.15;;;9.25;;
25169;SDS011;13129;48.012;10.352;2023-05-29T06:52:49;10.57;;;8.98;;
25169;SDS011;13129;48.012;10.352;2023-05-29T06:55:15;13.07;;;9.70;;
25169;SDS011;13129;48.012;10.352;2023-05-29T06:57:41;9.82;;;8.82;;
25169;SDS011;13129;48.012;10.352;2023-05-29T07:00:07;11.07;;;9.25;;
25169;SDS011;13129;48.012;10.352;2023-05-29T07:02:35;11.15;;;8.82;;
25169;SDS011;13129;48.012;10.352;2023-05-29T07:05:01;11.48;;;9.25;;
25169;SDS011;13129;48.012;10.352;2023-05-29T07:07:27;12.57;;;8.80;;
25169;SDS011;13129;48.012;10.352;2023-05-29T07:09:53;13.73;;;9.18;;
25169;SDS011;13129;48.012;10.352;2023-05-29T07:12:19;10.93;;;9.20;;
25169;SDS011;13129;48.012;10.352;2023-05-29T07:14:44;10.48;;;8.60;;
25169;SDS011;13129;48.012;10.352;2023-05-29T07:17:13;9.02;;;7.82;;
25169;SDS011;13129;48.012;10.352;2023-05-29T07:19:39;10.48;;;8.35;;
25169;SDS011;13129;48.012;10.352;2023-05-29T07:22:05;10.88;;;8.63;;
25169;SDS011;13129;48.012;10.352;2023-05-29T07:24:30;9.93;;;8.10;;
25169;SDS011;13129;48.012;10.352;2023-05-29T07:26:56;9.50;;;7.68;;
25169;SDS011;13129;48.012;10.352;2023-05-29T07:29:22;12.63;;;8.82;;
25169;SDS011;13129;48.012;10.352;2023-05-29T07:31:49;9.32;;;7.85;;
25169;SDS011;13129;48.012;10.352;2023-05-29T07:34:17;9.67;;;8.67;;
25169;SDS011;13129;48.012;10.352;2023-05-29T07:39:43;8.40;;;7.32;;
25169;SDS011;13129;48.012;10.352;2023-05-29T07:42:09;9.18;;;7.40;;
25169;SDS011;13129;48.012;10.352;2023-05-29T07:44:35;10.13;;;7.85;;
25169;SDS011;13129;48.012;10.352;2023-05-29T07:47:00;8.90;;;7.10;;
25169;SDS011;13129;48.012;10.352;2023-05-29T07:49:26;8.43;;;7.47;;
25169;SDS011;13129;48.012;10.352;2023-05-29T07:51:52;8.98;;;7.28;;
25169;SDS011;13129;48.012;10.352;2023-05-29T07:54:18;9.55;;;7.35;;
25169;SDS011;13129;48.012;10.352;2023-05-29T07:56:45;8.32;;;7.22;;
25169;SDS011;13129;48.012;10.352;2023-05-29T07:59:11;9.18;;;7.70;;
25169;SDS011;13129;48.012;10.352;2023-05-29T08:01:37;7.93;;;7.05;;
25169;SDS011;13129;48.012;10.352;2023-05-29T08:04:04;9.32;;;7.10;;
25169;SDS011;13129;48.012;10.352;2023-05-29T08:06:29;8.57;;;6.07;;
25169;SDS011;13129;48.012;10.352;2023-05-29T08:08:57;9.40;;;7.50;;
25169;SDS011;13129;48.012;10.352;2023-05-29T08:11:23;7.80;;;6.28;;
25169;SDS011;13129;48.012;10.352;2023-05-29T08:13:49;7.68;;;6.97;;
25169;SDS011;13129;48.012;10.352;2023-05-29T08:16:15;7.82;;;6.68;;
25169;SDS011;13129;48.012;10.352;2023-05-29T08:18:41;11.30;;;7.28;;
25169;SDS011;13129;48.012;10.352;2023-05-29T08:21:07;8.07;;;7.18;;
25169;SDS011;13129;48.012;10.352;2023-05-29T08:23:34;9.77;;;7.15;;
25169;SDS011;13129;48.012;10.352;2023-05-29T08:26:00;7.15;;;6.45;;
25169;SDS011;13129;48.012;10.352;2023-05-29T08:28:27;10.68;;;8.25;;
25169;SDS011;13129;48.012;10.352;2023-05-29T08:30:53;8.60;;;7.10;;
25169;SDS011;13129;48.012;10.352;2023-05-29T08:33:19;8.50;;;7.70;;
25169;SDS011;13129;48.012;10.352;2023-05-29T08:35:45;7.80;;;6.95;;
25169;SDS011;13129;48.012;10.352;2023-05-29T08:38:12;8.07;;;6.60;;
25169;SDS011;13129;48.012;10.352;2023-05-29T08:40:38;6.80;;;6.13;;
25169;SDS011;13129;48.012;10.352;2023-05-29T08:43:16;7.25;;;5.57;;
25169;SDS011;13129;48.012;10.352;2023-05-29T08:45:46;7.05;;;6.35;;
25169;SDS011;13129;48.012;10.352;2023-05-29T08:48:16;6.80;;;6.10;;
25169;SDS011;13129;48.012;10.352;2023-05-29T08:50:47;8.43;;;6.38;;
25169;SDS011;13129;48.012;10.352;2023-05-29T08:53:16;8.55;;;6.70;;
25169;SDS011;13129;48.012;10.352;2023-05-29T08:55:44;8.60;;;6.30;;
25169;SDS011;13129;48.012;10.352;2023-05-29T08:58:12;7.15;;;5.72;;
25169;SDS011;13129;48.012;10.352;2023-05-29T09:00:39;8.10;;;6.30;;
25169;SDS011;13129;48.012;10.352;2023-05-29T09:03:06;8.38;;;7.03;;
25169;SDS011;13129;48.012;10.352;2023-05-29T09:05:32;7.60;;;5.90;;
25169;SDS011;13129;48.012;10.352;2023-05-29T09:07:58;7.47;;;6.50;;
25169;SDS011;13129;48.012;10.352;2023-05-29T09:10:24;7.35;;;6.65;;
25169;SDS011;13129;48.012;10.352;2023-05-29T09:12:51;6.70;;;6.03;;
25169;SDS011;13129;48.012;10.352;2023-05-29T09:15:17;7.95;;;6.35;;
25169;SDS011;13129;48.012;10.352;2023-05-29T09:17:51;7.22;;;6.53;;
25169;SDS011;13129;48.012;10.352;2023-05-29T09:20:18;9.52;;;6.95;;
25169;SDS011;13129;48.012;10.352;2023-05-29T09:22:55;7.63;;;6.25;;
25169;SDS011;13129;48.012;10.352;2023-05-29T09:25:29;6.78;;;6.07;;
25169;SDS011;13129;48.012;10.352;2023-05-29T09:28:04;7.05;;;6.00;;
25169;SDS011;13129;48.012;10.352;2023-05-29T09:30:34;7.82;;;5.65;;
25169;SDS011;13129;48.012;10.352;2023-05-29T09:33:02;6.57;;;5.80;;
25169;SDS011;13129;48.012;10.352;2023-05-29T09:38:04;7.28;;;5.45;;
25169;SDS011;13129;48.012;10.352;2023-05-29T09:40:31;7.00;;;5.35;;
25169;SDS011;13129;48.012;10.352;2023-05-29T09:43:01;10.98;;;6.15;;
25169;SDS011;13129;48.012;10.352;2023-05-29T09:45:30;6.07;;;5.25;;
25169;SDS011;13129;48.012;10.352;2023-05-29T09:47:56;7.97;;;5.65;;
25169;SDS011;13129;48.012;10.352;2023-05-29T09:50:25;6.85;;;5.30;;
25169;SDS011;13129;48.012;10.352;2023-05-29T09:52:51;7.05;;;5.72;;
25169;SDS011;13129;48.012;10.352;2023-05-29T09:55:21;9.32;;;5.38;;
25169;SDS011;13129;48.012;10.352;2023-05-29T09:57:52;6.80;;;5.60;;
25169;SDS011;13129;48.012;10.352;2023-05-29T10:00:18;8.52;;;6.28;;
25169;SDS011;13129;48.012;10.352;2023-05-29T10:02:45;7.10;;;5.20;;
25169;SDS011;13129;48.012;10.352;2023-05-29T10:05:10;6.65;;;5.93;;
25169;SDS011;13129;48.012;10.352;2023-05-29T10:07:37;7.43;;;5.70;;
25169;SDS011;13129;48.012;10.352;2023-05-29T10:10:08;6.35;;;5.15;;
25169;SDS011;13129;48.012;10.352;2023-05-29T10:12:42;6.45;;;5.70;;
25169;SDS011;13129;48.012;10.352;2023-05-29T10:15:13;6.47;;;5.80;;
25169;SDS011;13129;48.012;10.352;2023-05-29T10:17:42;7.93;;;5.22;;
25169;SDS011;13129;48.012;10.352;2023-05-29T10:20:14;7.22;;;5.40;;
25169;SDS011;13129;48.012;10.352;2023-05-29T10:22:43;6.40;;;5.43;;
25169;SDS011;13129;48.012;10.352;2023-05-29T10:25:11;8.18;;;5.55;;
25169;SDS011;13129;48.012;10.352;2023-05-29T10:27:38;7.03;;;5.78;;
25169;SDS011;13129;48.012;10.352;2023-05-29T10:30:06;6.65;;;5.30;;
25169;SDS011;13129;48.012;10.352;2023-05-29T10:35:31;8.57;;;5.78;;
25169;SDS011;13129;48.012;10.352;2023-05-29T10:40:36;8.32;;;4.90;;
25169;SDS011;13129;48.012;10.352;2023-05-29T10:43:01;6.45;;;5.47;;
25169;SDS011;13129;48.012;10.352;2023-05-29T10:50:46;6.75;;;4.65;;
25169;SDS011;13129;48.012;10.352;2023-05-29T10:53:16;6.82;;;5.75;;
25169;SDS011;13129;48.012;10.352;2023-05-29T10:55:47;6.13;;;4.82;;
25169;SDS011;13129;48.012;10.352;2023-05-29T10:58:15;9.13;;;5.55;;
25169;SDS011;13129;48.012;10.352;2023-05-29T11:00:43;8.02;;;5.38;;
25169;SDS011;13129;48.012;10.352;2023-05-29T11:03:20;8.82;;;5.25;;
25169;SDS011;13129;48.012;10.352;2023-05-29T11:08:54;6.78;;;5.35;;
25169;SDS011;13129;48.012;10.352;2023-05-29T11:13:56;7.60;;;4.70;;
25169;SDS011;13129;48.012;10.352;2023-05-29T11:18:54;7.10;;;5.53;;
25169;SDS011;13129;48.012;10.352;2023-05-29T11:21:34;8.20;;;5.50;;
25169;SDS011;13129;48.012;10.352;2023-05-29T11:24:26;7.93;;;5.47;;
25169;SDS011;13129;48.012;10.352;2023-05-29T11:26:53;6.38;;;5.50;;
25169;SDS011;13129;48.012;10.352;2023-05-29T11:29:26;8.45;;;5.53;;
25169;SDS011;13129;48.012;10.352;2023-05-29T11:34:35;7.13;;;5.18;;
25169;SDS011;13129;48.012;10.352;2023-05-29T11:37:04;5.82;;;5.30;;
25169;SDS011;13129;48.012;10.352;2023-05-29T11:39:30;8.32;;;5.18;;
25169;SDS011;13129;48.012;10.352;2023-05-29T11:41:58;8.07;;;5.95;;
25169;SDS011;13129;48.012;10.352;2023-05-29T11:44:25;7.00;;;5.00;;
25169;SDS011;13129;48.012;10.352;2023-05-29T11:47:01;6.32;;;5.22;;
25169;SDS011;13129;48.012;10.352;2023-05-29T11:49:31;8.25;;;5.30;;
25169;SDS011;13129;48.012;10.352;2023-05-29T11:52:14;6.80;;;4.85;;
25169;SDS011;13129;48.012;10.352;2023-05-29T11:54:41;8.73;;;4.78;;
25169;SDS011;13129;48.012;10.352;2023-05-29T11:57:16;6.78;;;4.90;;
25169;SDS011;13129;48.012;10.352;2023-05-29T11:59:46;6.28;;;4.82;;
25169;SDS011;13129;48.012;10.352;2023-05-29T12:02:14;7.85;;;5.60;;
25169;SDS011;13129;48.012;10.352;2023-05-29T12:04:39;6.25;;;4.68;;
25169;SDS011;13129;48.012;10.352;2023-05-29T12:07:18;7.20;;;4.93;;
25169;SDS011;13129;48.012;10.352;2023-05-29T12:09:44;4.82;;;4.32;;
25169;SDS011;13129;48.012;10.352;2023-05-29T12:12:12;5.55;;;4.25;;
25169;SDS011;13129;48.012;10.352;2023-05-29T12:14:37;7.75;;;4.97;;
25169;SDS011;13129;48.012;10.352;2023-05-29T12:17:04;5.65;;;4.68;;
25169;SDS011;13129;48.012;10.352;2023-05-29T12:19:30;6.70;;;4.63;;
25169;SDS011;13129;48.012;10.352;2023-05-29T12:21:56;5.45;;;4.63;;
25169;SDS011;13129;48.012;10.352;2023-05-29T12:24:22;6.13;;;4.90;;
25169;SDS011;13129;48.012;10.352;2023-05-29T12:26:48;4.97;;;4.40;;
25169;SDS011;13129;48.012;10.352;2023-05-29T12:29:13;6.50;;;4.43;;
25169;SDS011;13129;48.012;10.352;2023-05-29T12:31:40;5.72;;;4.30;;
25169;SDS011;13129;48.012;10.352;2023-05-29T12:34:10;7.70;;;4.50;;
25169;SDS011;13129;48.012;10.352;2023-05-29T12:36:43;5.53;;;4.13;;
25169;SDS011;13129;48.012;10.352;2023-05-29T12:39:09;5.80;;;4.22;;
25169;SDS011;13129;48.012;10.352;2023-05-29T12:41:36;8.95;;;5.35;;
25169;SDS011;13129;48.012;10.352;2023-05-29T12:44:03;4.95;;;4.45;;
25169;SDS011;13129;48.012;10.352;2023-05-29T12:49:16;4.07;;;3.67;;
25169;SDS011;13129;48.012;10.352;2023-05-29T12:51:46;5.47;;;4.07;;
25169;SDS011;13129;48.012;10.352;2023-05-29T12:54:12;5.63;;;4.65;;
25169;SDS011;13129;48.012;10.352;2023-05-29T12:56:39;5.20;;;4.22;;
25169;SDS011;13129;48.012;10.352;2023-05-29T12:59:09;7.38;;;4.65;;
25169;SDS011;13129;48.012;10.352;2023-05-29T13:01:38;5.97;;;4.55;;
25169;SDS011;13129;48.012;10.352;2023-05-29T13:04:05;5.32;;;4.68;;
25169;SDS011;13129;48.012;10.352;2023-05-29T13:06:34;5.53;;;3.73;;
25169;SDS011;13129;48.012;10.352;2023-05-29T13:09:00;5.63;;;4.28;;
25169;SDS011;13129;48.012;10.352;2023-05-29T13:11:26;6.22;;;4.45;;
25169;SDS011;13129;48.012;10.352;2023-05-29T13:13:52;7.53;;;4.57;;
25169;SDS011;13129;48.012;10.352;2023-05-29T13:16:17;6.38;;;4.15;;
25169;SDS011;13129;48.012;10.352;2023-05-29T13:18:43;4.93;;;3.65;;
25169;SDS011;13129;48.012;10.352;2023-05-29T13:21:09;5.50;;;3.83;;
25169;SDS011;13129;48.012;10.352;2023-05-29T13:23:35;5.07;;;4.00;;
25169;SDS011;13129;48.012;10.352;2023-05-29T13:26:01;5.00;;;3.80;;
25169;SDS011;13129;48.012;10.352;2023-05-29T13:28:28;6.07;;;4.05;;
25169;SDS011;13129;48.012;10.352;2023-05-29T13:30:54;5.25;;;3.75;;
25169;SDS011;13129;48.012;10.352;2023-05-29T13:33:19;6.97;;;4.70;;
25169;SDS011;13129;48.012;10.352;2023-05-29T13:35:45;5.75;;;4.22;;
25169;SDS011;13129;48.012;10.352;2023-05-29T13:38:11;4.57;;;4.10;;
25169;SDS011;13129;48.012;10.352;2023-05-29T13:40:36;4.18;;;3.38;;
25169;SDS011;13129;48.012;10.352;2023-05-29T13:43:02;4.82;;;3.95;;
25169;SDS011;13129;48.012;10.352;2023-05-29T13:45:28;4.20;;;3.80;;
25169;SDS011;13129;48.012;10.352;2023-05-29T13:47:54;5.20;;;3.80;;
25169;SDS011;13129;48.012;10.352;2023-05-29T13:50:20;6.03;;;4.05;;
25169;SDS011;13129;48.012;10.352;2023-05-29T13:52:48;4.43;;;4.03;;
25169;SDS011;13129;48.012;10.352;2023-05-29T13:55:14;6.00;;;4.35;;
25169;SDS011;13129;48.012;10.352;2023-05-29T13:57:40;7.13;;;4.30;;
25169;SDS011;13129;48.012;10.352;2023-05-29T14:00:07;4.95;;;4.10;;
25169;SDS011;13129;48.012;10.352;2023-05-29T14:02:35;4.28;;;3.38;;
25169;SDS011;13129;48.012;10.352;2023-05-29T14:05:01;3.97;;;3.50;;
25169;SDS011;13129;48.012;10.352;2023-05-29T14:07:27;4.82;;;3.95;;
25169;SDS011;13129;48.012;10.352;2023-05-29T14:09:53;4.82;;;3.75;;
25169;SDS011;13129;48.012;10.352;2023-05-29T14:12:18;4.82;;;3.63;;
25169;SDS011;13129;48.012;10.352;2023-05-29T14:14:44;4.03;;;3.60;;
25169;SDS011;13129;48.012;10.352;2023-05-29T14:17:10;4.13;;;3.72;;
25169;SDS011;13129;48.012;10.352;2023-05-29T14:19:37;4.90;;;3.88;;
25169;SDS011;13129;48.012;10.352;2023-05-29T14:22:03;6.50;;;3.92;;
25169;SDS011;13129;48.012;10.352;2023-05-29T14:24:28;4.20;;;3.80;;
25169;SDS011;13129;48.012;10.352;2023-05-29T14:26:54;5.20;;;4.00;;
25169;SDS011;13129;48.012;10.352;2023-05-29T14:29:20;6.03;;;4.18;;
25169;SDS011;13129;48.012;10.352;2023-05-29T14:31:45;6.78;;;4.75;;
25169;SDS011;13129;48.012;10.352;2023-05-29T14:34:12;6.55;;;3.88;;
25169;SDS011;13129;48.012;10.352;2023-05-29T14:36:38;6.05;;;4.35;;
25169;SDS011;13129;48.012;10.352;2023-05-29T14:39:04;5.55;;;4.15;;
25169;SDS011;13129;48.012;10.352;2023-05-29T14:41:31;6.05;;;4.07;;
25169;SDS011;13129;48.012;10.352;2023-05-29T14:43:56;6.95;;;4.18;;
25169;SDS011;13129;48.012;10.352;2023-05-29T14:46:23;5.03;;;4.45;;
25169;SDS011;13129;48.012;10.352;2023-05-29T14:48:50;4.30;;;3.90;;
25169;SDS011;13129;48.012;10.352;2023-05-29T14:51:16;4.55;;;3.90;;
25169;SDS011;13129;48.012;10.352;2023-05-29T14:53:44;6.40;;;4.28;;
25169;SDS011;13129;48.012;10.352;2023-05-29T14:56:09;5.05;;;4.03;;
25169;SDS011;13129;48.012;10.352;2023-05-29T14:58:49;6.68;;;4.80;;
25169;SDS011;13129;48.012;10.352;2023-05-29T15:01:15;6.65;;;5.03;;
25169;SDS011;13129;48.012;10.352;2023-05-29T15:03:42;6.95;;;4.47;;
25169;SDS011;13129;48.012;10.352;2023-05-29T15:06:09;5.93;;;3.88;;
25169;SDS011;13129;48.012;10.352;2023-05-29T15:08:36;5.32;;;3.97;;
25169;SDS011;13129;48.012;10.352;2023-05-29T15:11:04;7.43;;;5.03;;
25169;SDS011;13129;48.012;10.352;2023-05-29T15:13:30;6.22;;;3.97;;
25169;SDS011;13129;48.012;10.352;2023-05-29T15:15:56;6.25;;;4.60;;
25169;SDS011;13129;48.012;10.352;2023-05-29T15:18:24;4.82;;;4.20;;
25169;SDS011;13129;48.012;10.352;2023-05-29T15:20:53;6.28;;;4.28;;
25169;SDS011;13129;48.012;10.352;2023-05-29T15:23:19;6.25;;;4.32;;
25169;SDS011;13129;48.012;10.352;2023-05-29T15:25:47;7.30;;;3.95;;
25169;SDS011;13129;48.012;10.352;2023-05-29T15:28:14;6.05;;;4.32;;
25169;SDS011;13129;48.012;10.352;2023-05-29T15:30:39;5.50;;;4.40;;
25169;SDS011;13129;48.012;10.352;2023-05-29T15:33:05;5.20;;;4.22;;
25169;SDS011;13129;48.012;10.352;2023-05-29T15:35:33;6.65;;;4.38;;
25169;SDS011;13129;48.012;10.352;2023-05-29T15:37:58;7.00;;;4.50;;
25169;SDS011;13129;48.012;10.352;2023-05-29T15:40:25;5.22;;;4.65;;
25169;SDS011;13129;48.012;10.352;2023-05-29T15:42:50;6.35;;;4.88;;
25169;SDS011;13129;48.012;10.352;2023-05-29T15:45:16;6.45;;;4.50;;
25169;SDS011;13129;48.012;10.352;2023-05-29T15:47:42;5.38;;;4.75;;
25169;SDS011;13129;48.012;10.352;2023-05-29T15:50:07;5.35;;;4.30;;
25169;SDS011;13129;48.012;10.352;2023-05-29T15:52:33;7.00;;;4.63;;
25169;SDS011;13129;48.012;10.352;2023-05-29T15:54:59;7.97;;;5.25;;
25169;SDS011;13129;48.012;10.352;2023-05-29T15:57:25;6.28;;;4.72;;
25169;SDS011;13129;48.012;10.352;2023-05-29T15:59:50;6.70;;;4.60;;
25169;SDS011;13129;48.012;10.352;2023-05-29T16:02:16;6.05;;;4.10;;
25169;SDS011;13129;48.012;10.352;2023-05-29T16:04:42;5.10;;;4.20;;
25169;SDS011;13129;48.012;10.352;2023-05-29T16:07:07;8.13;;;4.53;;
25169;SDS011;13129;48.012;10.352;2023-05-29T16:09:33;7.10;;;4.45;;
25169;SDS011;13129;48.012;10.352;2023-05-29T16:11:59;8.13;;;4.90;;
25169;SDS011;13129;48.012;10.352;2023-05-29T16:14:24;5.55;;;4.95;;
25169;SDS011;13129;48.012;10.352;2023-05-29T16:16:50;7.60;;;4.80;;
25169;SDS011;13129;48.012;10.352;2023-05-29T16:19:16;5.70;;;4.63;;
25169;SDS011;13129;48.012;10.352;2023-05-29T16:21:42;5.47;;;4.32;;
25169;SDS011;13129;48.012;10.352;2023-05-29T16:24:08;5.20;;;3.70;;
25169;SDS011;13129;48.012;10.352;2023-05-29T16:26:34;6.22;;;4.47;;
25169;SDS011;13129;48.012;10.352;2023-05-29T16:29:00;5.93;;;4.90;;
25169;SDS011;13129;48.012;10.352;2023-05-29T16:31:27;6.45;;;4.38;;
25169;SDS011;13129;48.012;10.352;2023-05-29T16:33:53;7.80;;;4.50;;
25169;SDS011;13129;48.012;10.352;2023-05-29T16:36:20;7.28;;;4.47;;
25169;SDS011;13129;48.012;10.352;2023-05-29T16:38:46;7.75;;;4.80;;
25169;SDS011;13129;48.012;10.352;2023-05-29T16:41:12;7.10;;;4.97;;
25169;SDS011;13129;48.012;10.352;2023-05-29T16:43:37;4.97;;;4.43;;
25169;SDS011;13129;48.012;10.352;2023-05-29T16:46:03;5.93;;;4.20;;
25169;SDS011;13129;48.012;10.352;2023-05-29T16:48:32;5.80;;;4.38;;
25169;SDS011;13129;48.012;10.352;2023-05-29T16:50:59;5.85;;;4.40;;
25169;SDS011;13129;48.012;10.352;2023-05-29T16:53:24;4.70;;;4.30;;
25169;SDS011;13129;48.012;10.352;2023-05-29T16:55:50;5.90;;;4.88;;
25169;SDS011;13129;48.012;10.352;2023-05-29T16:58:16;5.00;;;4.05;;
25169;SDS011;13129;48.012;10.352;2023-05-29T17:00:45;5.47;;;3.90;;
25169;SDS011;13129;48.012;10.352;2023-05-29T17:03:11;5.63;;;4.50;;
25169;SDS011;13129;48.012;10.352;2023-05-29T17:05:37;6.95;;;4.82;;
25169;SDS011;13129;48.012;10.352;2023-05-29T17:08:03;5.93;;;4.88;;
25169;SDS011;13129;48.012;10.352;2023-05-29T17:10:32;8.13;;;4.47;;
25169;SDS011;13129;48.012;10.352;2023-05-29T17:12:58;5.97;;;4.68;;
25169;SDS011;13129;48.012;10.352;2023-05-29T17:15:24;6.97;;;5.00;;
25169;SDS011;13129;48.012;10.352;2023-05-29T17:17:50;5.65;;;3.97;;
25169;SDS011;13129;48.012;10.352;2023-05-29T17:20:18;5.10;;;4.35;;
25169;SDS011;13129;48.012;10.352;2023-05-29T17:22:43;5.57;;;4.30;;
25169;SDS011;13129;48.012;10.352;2023-05-29T17:25:09;6.53;;;4.32;;
25169;SDS011;13129;48.012;10.352;2023-05-29T17:27:35;6.65;;;4.35;;
25169;SDS011;13129;48.012;10.352;2023-05-29T17:30:00;6.32;;;4.13;;
25169;SDS011;13129;48.012;10.352;2023-05-29T17:32:26;5.13;;;4.60;;
25169;SDS011;13129;48.012;10.352;2023-05-29T17:34:52;6.43;;;4.43;;
25169;SDS011;13129;48.012;10.352;2023-05-29T17:37:18;6.45;;;4.88;;
25169;SDS011;13129;48.012;10.352;2023-05-29T17:39:45;5.53;;;4.20;;
25169;SDS011;13129;48.012;10.352;2023-05-29T17:42:10;4.78;;;4.00;;
25169;SDS011;13129;48.012;10.352;2023-05-29T17:44:36;5.07;;;4.47;;
25169;SDS011;13129;48.012;10.352;2023-05-29T17:49:33;4.30;;;3.90;;
25169;SDS011;13129;48.012;10.352;2023-05-29T17:51:58;5.95;;;4.32;;
25169;SDS011;13129;48.012;10.352;2023-05-29T17:54:24;4.65;;;3.80;;
25169;SDS011;13129;48.012;10.352;2023-05-29T17:56:51;6.20;;;4.30;;
25169;SDS011;13129;48.012;10.352;2023-05-29T17:59:17;5.18;;;4.22;;
25169;SDS011;13129;48.012;10.352;2023-05-29T18:01:42;4.70;;;3.80;;
25169;SDS011;13129;48.012;10.352;2023-05-29T18:04:08;5.75;;;4.30;;
25169;SDS011;13129;48.012;10.352;2023-05-29T18:06:33;6.03;;;4.38;;
25169;SDS011;13129;48.012;10.352;2023-05-29T18:09:00;5.53;;;4.05;;
25169;SDS011;13129;48.012;10.352;2023-05-29T18:11:26;7.05;;;4.40;;
25169;SDS011;13129;48.012;10.352;2023-05-29T18:13:52;6.05;;;4.00;;
25169;SDS011;13129;48.012;10.352;2023-05-29T18:16:17;6.03;;;3.80;;
25169;SDS011;13129;48.012;10.352;2023-05-29T18:18:43;5.20;;;3.90;;
25169;SDS011;13129;48.012;10.352;2023-05-29T18:21:09;4.85;;;3.60;;
25169;SDS011;13129;48.012;10.352;2023-05-29T18:23:35;5.80;;;3.78;;
25169;SDS011;13129;48.012;10.352;2023-05-29T18:26:00;6.25;;;4.57;;
25169;SDS011;13129;48.012;10.352;2023-05-29T18:28:28;5.45;;;4.00;;
25169;SDS011;13129;48.012;10.352;2023-05-29T18:30:53;5.13;;;4.03;;